Time;durP1;ratioP1;P1;durP2;ratioP2;P2;SDS_P1;SDS_P2;PMS_P1;PMS_P2;Temp;Humidity;BMP_temperature;BMP_pressure;BME280_temperature;BME280_humidity;BME280_pressure;Samples;Min_cycle;Max_cycle;Signal;HPM_P1;HPM_P2
2021/01/12 18:06:28;;;;;;;20.42;14.60;;;19.90;38.90;;;;;;5070227;27;76314;-61
2021/01/12 18:08:55;;;;;;;21.63;14.75;;;18.00;33.40;;;;;;5060833;27;83139;-62
2021/01/12 18:11:24;;;;;;;21.00;15.32;;;15.10;34.70;;;;;;5060458;27;84043;-62
2021/01/12 18:13:54;;;;;;;23.55;14.93;;;12.50;36.60;;;;;;5060787;27;83809;-61
2021/01/12 18:16:21;;;;;;;26.05;15.43;;;10.40;39.20;;;;;;5060490;27;84125;-61
2021/01/12 18:18:46;;;;;;;23.88;14.05;;;8.80;41.70;;;;;;5041711;27;83539;-62
2021/01/12 18:21:13;;;;;;;24.63;15.63;;;7.50;43.90;;;;;;5042108;27;85198;-63
2021/01/12 18:23:44;;;;;;;21.95;14.73;;;6.60;45.40;;;;;;5060712;27;83327;-63
2021/01/12 18:26:11;;;;;;;25.33;15.63;;;5.70;47.00;;;;;;5061071;27;82852;-62
2021/01/12 18:28:39;;;;;;;25.27;14.20;;;5.00;48.60;;;;;;5042994;27;82783;-61
2021/01/12 18:31:05;;;;;;;25.80;14.23;;;4.50;49.90;;;;;;5061478;27;82865;-63
2021/01/12 18:33:31;;;;;;;23.95;13.45;;;4.00;50.80;;;;;;5061176;27;83224;-63
2021/01/12 18:35:57;;;;;;;21.95;13.50;;;3.70;51.10;;;;;;5061722;27;83654;-61
2021/01/12 18:38:24;;;;;;;23.70;15.02;;;3.40;51.70;;;;;;5061449;27;83822;-63
2021/01/12 18:40:53;;;;;;;25.83;14.35;;;3.10;52.60;;;;;;5043047;27;84082;-62
2021/01/12 18:43:19;;;;;;;28.80;14.65;;;2.80;53.50;;;;;;5061701;27;84424;-61
2021/01/12 18:45:45;;;;;;;26.70;16.65;;;2.50;54.20;;;;;;5061708;27;82210;-63
2021/01/12 18:48:11;;;;;;;27.13;15.70;;;2.30;54.80;;;;;;5061544;27;83260;-63
2021/01/12 18:50:37;;;;;;;24.50;15.57;;;2.10;55.60;;;;;;5061428;27;82932;-62
2021/01/12 18:53:04;;;;;;;22.92;13.07;;;2.00;56.20;;;;;;5061534;27;83308;-61
2021/01/12 18:55:32;;;;;;;23.50;14.07;;;1.90;56.20;;;;;;5061244;27;82517;-61
2021/01/12 18:58:00;;;;;;;26.15;14.90;;;1.80;56.50;;;;;;5061385;27;83191;-61
2021/01/12 19:00:26;;;;;;;26.08;14.85;;;1.70;56.70;;;;;;5061849;27;82446;-62
2021/01/12 19:02:58;;;;;;;24.23;14.07;;;1.50;57.60;;;;;;5061205;27;83297;-62
2021/01/12 19:05:24;;;;;;;24.88;13.77;;;1.40;58.50;;;;;;5060581;27;83500;-63
2021/01/12 19:07:54;;;;;;;23.85;13.45;;;1.40;58.80;;;;;;5043330;27;83225;-62
2021/01/12 19:10:20;;;;;;;23.30;13.85;;;1.30;59.20;;;;;;5043177;27;82865;-62
2021/01/12 19:12:46;;;;;;;22.90;13.85;;;1.20;59.40;;;;;;5061060;27;83300;-66
2021/01/12 19:15:12;;;;;;;21.33;12.27;;;1.10;59.60;;;;;;5060793;27;83350;-62
2021/01/12 19:17:41;;;;;;;25.67;12.50;;;1.10;59.90;;;;;;5030145;28;83533;-61
2021/01/12 19:20:08;;;;;;;21.00;12.32;;;1.10;60.00;;;;;;5047275;28;82869;-62
2021/01/12 19:22:34;;;;;;;22.95;12.75;;;1.10;60.10;;;;;;5046912;28;83609;-61
2021/01/12 19:25:00;;;;;;;21.70;11.93;;;1.00;60.30;;;;;;5028789;28;85216;-61
2021/01/12 19:27:30;;;;;;;21.88;12.18;;;1.00;60.50;;;;;;5047153;28;83156;-62
2021/01/12 19:29:56;;;;;;;25.02;13.18;;;1.00;60.70;;;;;;5029002;28;82957;-64
2021/01/12 19:32:24;;;;;;;26.38;13.88;;;1.00;60.90;;;;;;5027874;28;85474;-60
2021/01/12 19:34:53;;;;;;;27.55;14.35;;;1.00;60.90;;;;;;5027934;28;82535;-61
2021/01/12 19:37:19;;;;;;;29.30;15.32;;;1.00;61.20;;;;;;5046583;28;83045;-61
2021/01/12 19:39:45;;;;;;;26.48;15.20;;;0.90;61.40;;;;;;5028447;28;83024;-62
2021/01/12 19:42:16;;;;;;;25.58;14.40;;;1.00;61.50;;;;;;5047036;28;83846;-62
2021/01/12 19:44:46;;;;;;;26.50;14.55;;;0.90;61.80;;;;;;5028529;28;83910;-61
2021/01/12 19:47:12;;;;;;;37.90;15.85;;;0.90;61.80;;;;;;5028776;28;84271;-63
2021/01/12 19:49:38;;;;;;;30.63;16.27;;;0.90;61.90;;;;;;5028304;28;83442;-61
2021/01/12 19:52:05;;;;;;;30.70;17.05;;;0.90;61.70;;;;;;5046850;28;83221;-61
2021/01/12 19:54:33;;;;;;;29.35;16.20;;;0.90;61.70;;;;;;5046973;28;83089;-66
2021/01/12 19:56:59;;;;;;;31.45;17.80;;;0.90;61.90;;;;;;5028396;28;82483;-62
2021/01/12 19:59:25;;;;;;;38.05;19.00;;;0.80;61.70;;;;;;5046728;28;82598;-62
2021/01/12 20:01:52;;;;;;;36.55;19.48;;;0.70;61.90;;;;;;5046372;28;83295;-61
2021/01/12 20:04:18;;;;;;;36.67;17.85;;;0.80;62.20;;;;;;5046302;28;82746;-61
2021/01/12 20:06:47;;;;;;;36.35;18.63;;;0.80;62.40;;;;;;5047213;28;82446;-61
2021/01/12 20:09:14;;;;;;;32.08;17.63;;;0.80;62.80;;;;;;5027899;28;83230;-61
2021/01/12 20:11:42;;;;;;;34.88;18.55;;;0.80;63.00;;;;;;5028048;28;84485;-61
2021/01/12 20:14:09;;;;;;;38.40;19.83;;;0.70;62.90;;;;;;5028183;28;85825;-61
2021/01/12 20:16:45;;;;;;;34.58;18.58;;;0.70;62.80;;;;;;5027283;28;84624;-62
2021/01/12 20:19:20;;;;;;;35.72;18.75;;;0.80;63.10;;;;;;5046271;28;82824;-61
2021/01/12 20:22:00;;;;;;;32.80;18.27;;;0.70;63.30;;;;;;5046398;28;83831;-62
2021/01/12 20:24:30;;;;;;;34.42;19.05;;;0.70;63.40;;;;;;5027858;28;84853;-63
2021/01/12 20:26:58;;;;;;;33.90;19.15;;;0.50;63.30;;;;;;5027531;28;85340;-63
2021/01/12 20:29:25;;;;;;;38.85;20.33;;;0.50;63.40;;;;;;5045004;27;82900;-61
2021/01/12 20:31:52;;;;;;;34.30;19.10;;;0.40;63.60;;;;;;5046416;28;82321;-62
2021/01/12 20:34:18;;;;;;;32.83;19.15;;;0.50;63.70;;;;;;5046159;28;83028;-62
2021/01/12 20:36:50;;;;;;;35.47;19.00;;;0.50;63.90;;;;;;5027063;28;85584;-62
2021/01/12 20:39:17;;;;;;;35.15;19.05;;;0.40;64.30;;;;;;5046562;28;82450;-63
2021/01/12 20:41:47;;;;;;;37.15;19.77;;;0.40;64.50;;;;;;5046220;28;83283;-62
2021/01/12 20:44:29;;;;;;;34.38;19.50;;;0.40;64.50;;;;;;5045955;28;82443;-62
2021/01/12 20:46:57;;;;;;;38.63;20.10;;;0.40;64.80;;;;;;5045761;28;83974;-62
2021/01/12 20:49:23;;;;;;;37.22;19.48;;;0.40;64.80;;;;;;5046018;28;83053;-63
2021/01/12 20:51:51;;;;;;;35.13;19.05;;;0.40;64.60;;;;;;5045640;28;83523;-62
2021/01/12 20:54:19;;;;;;;35.97;19.33;;;0.30;64.60;;;;;;5011030;28;84754;-60
2021/01/12 20:56:46;;;;;;;34.90;18.77;;;0.30;64.70;;;;;;5027562;28;86584;-62
2021/01/12 20:59:12;;;;;;;36.78;19.98;;;0.30;64.90;;;;;;5026982;28;85160;-62
2021/01/12 21:01:39;;;;;;;37.17;21.45;;;0.20;64.90;;;;;;5026772;28;85911;-63
2021/01/12 21:04:05;;;;;;;39.97;20.80;;;0.20;65.10;;;;;;5043903;28;82578;-61
2021/01/12 21:06:33;;;;;;;38.75;18.95;;;0.20;65.20;;;;;;5027317;28;85666;-62
2021/01/12 21:08:59;;;;;;;36.38;21.00;;;0.20;65.20;;;;;;5026985;28;84603;-62
2021/01/12 21:11:32;;;;;;;35.40;19.25;;;0.20;65.10;;;;;;5027318;28;82560;-62
2021/01/12 21:13:59;;;;;;;30.38;16.75;;;0.20;65.50;;;;;;5027058;28;82549;-61
2021/01/12 21:16:29;;;;;;;33.72;16.25;;;0.10;65.20;;;;;;5045498;28;83020;-61
2021/01/12 21:18:56;;;;;;;28.52;15.52;;;0.00;65.20;;;;;;5027062;28;83215;-62
2021/01/12 21:21:22;;;;;;;29.27;15.70;;;0.00;65.00;;;;;;5045308;28;83297;-61
2021/01/12 21:23:48;;;;;;;35.13;16.00;;;0.00;65.20;;;;;;5045547;28;82861;-61
2021/01/12 21:26:14;;;;;;;41.63;15.37;;;0.00;65.50;;;;;;5025797;28;85763;-61
2021/01/12 21:28:39;;;;;;;29.90;15.63;;;0.00;65.70;;;;;;5026305;28;84681;-61
2021/01/12 21:31:05;;;;;;;24.07;13.77;;;0.00;65.40;;;;;;5045430;28;82499;-61
2021/01/12 21:33:33;;;;;;;24.70;14.40;;;0.00;65.10;;;;;;5045088;28;82760;-61
2021/01/12 21:35:59;;;;;;;24.43;13.97;;;-3276.70;65.10;;;;;;5026841;28;85715;-61
2021/01/12 21:38:25;;;;;;;30.37;15.90;;;-3276.60;65.20;;;;;;5044977;28;82960;-62
2021/01/12 21:40:51;;;;;;;27.03;15.60;;;-3276.40;65.60;;;;;;5026859;28;86246;-61
2021/01/12 21:43:19;;;;;;;25.20;14.17;;;-3276.30;65.60;;;;;;5026637;28;84442;-62
2021/01/12 21:45:45;;;;;;;28.30;14.70;;;-3276.30;65.80;;;;;;5026139;28;84316;-62
2021/01/12 21:48:11;;;;;;;26.17;14.70;;;-3276.30;65.90;;;;;;5045701;28;82447;-62
2021/01/12 21:50:36;;;;;;;26.10;13.77;;;-3276.30;65.80;;;;;;5045100;28;83810;-62
2021/01/12 21:53:03;;;;;;;28.23;15.57;;;-3276.30;65.70;;;;;;5044712;28;83195;-62
2021/01/12 21:55:29;;;;;;;26.10;15.70;;;-3276.20;65.90;;;;;;5045180;28;82344;-62
2021/01/12 21:57:54;;;;;;;25.97;14.30;;;-3276.20;66.10;;;;;;5045014;28;83527;-62
2021/01/12 22:00:20;;;;;;;29.10;15.20;;;-3276.30;66.40;;;;;;5044745;28;83869;-62
2021/01/12 22:02:47;;;;;;;24.23;14.17;;;-3276.30;66.00;;;;;;5027312;28;86217;-62
2021/01/12 22:05:14;;;;;;;25.47;14.53;;;-3276.30;65.70;;;;;;5044214;28;84383;-62
2021/01/12 22:07:44;;;;;;;27.57;14.77;;;-3276.30;65.90;;;;;;5009691;28;84818;-62
2021/01/12 22:10:10;;;;;;;26.20;14.33;;;-3276.30;66.10;;;;;;5027035;28;86851;-63
2021/01/12 22:12:36;;;;;;;25.70;14.53;;;-3276.30;65.90;;;;;;5026181;28;83563;-62
2021/01/12 22:15:04;;;;;;;23.97;14.97;;;-3276.30;65.80;;;;;;5044500;28;83303;-62
2021/01/12 22:17:30;;;;;;;30.17;14.67;;;-3276.30;65.80;;;;;;5044537;28;84917;-61
2021/01/12 22:19:56;;;;;;;24.53;13.57;;;-3276.30;65.70;;;;;;5026134;28;82832;-62
2021/01/12 22:22:21;;;;;;;25.27;14.03;;;-3276.30;65.70;;;;;;5045203;28;82433;-61
2021/01/12 22:24:47;;;;;;;25.63;14.20;;;-3276.30;65.60;;;;;;5026325;28;83369;-62
2021/01/12 22:27:13;;;;;;;26.30;14.73;;;-3276.30;65.60;;;;;;5025003;28;85582;-62
2021/01/12 22:29:39;;;;;;;30.67;14.53;;;-3276.20;65.60;;;;;;5044244;28;83488;-63
2021/01/12 22:32:05;;;;;;;29.37;14.63;;;-3276.20;65.60;;;;;;5026058;28;85193;-62
2021/01/12 22:34:33;;;;;;;26.63;15.33;;;-3276.20;65.60;;;;;;5026906;28;86732;-74
2021/01/12 22:37:05;;;;;;;29.43;15.37;;;-3276.20;65.90;;;;;;5045397;28;83553;-81
2021/01/12 22:39:35;;;;;;;27.20;14.97;;;-3276.20;65.70;;;;;;5034330;28;83744;-81
2021/01/12 22:42:01;;;;;;;29.43;15.70;;;-3276.10;65.70;;;;;;5059651;28;82532;-82
2021/01/12 22:44:27;;;;;;;26.23;16.47;;;-3276.00;65.80;;;;;;5033514;28;82632;-81
2021/01/12 22:46:53;;;;;;;24.43;14.70;;;-3276.00;66.00;;;;;;5028052;28;82458;-81
2021/01/12 22:49:19;;;;;;;28.67;16.07;;;-3276.00;65.90;;;;;;5013189;28;83340;-82
2021/01/12 22:51:48;;;;;;;27.70;15.67;;;-3275.90;66.00;;;;;;5028953;28;84250;-82
2021/01/12 22:54:16;;;;;;;25.83;14.70;;;-3275.90;65.90;;;;;;5031771;28;83525;-82
2021/01/12 22:56:42;;;;;;;28.77;15.57;;;-3275.80;66.00;;;;;;5033363;28;84191;-81
2021/01/12 22:59:07;;;;;;;25.60;15.63;;;-3275.80;66.10;;;;;;5041538;28;83004;-81
2021/01/12 23:01:43;;;;;;;27.30;15.50;;;-3275.60;66.30;;;;;;5037893;28;84799;-83
2021/01/12 23:04:09;;;;;;;26.70;14.30;;;-3275.40;66.70;;;;;;5033432;28;86404;-81
2021/01/12 23:06:34;;;;;;;29.57;16.13;;;-3275.30;66.80;;;;;;5032081;28;85954;-80
2021/01/12 23:09:00;;;;;;;25.53;14.90;;;-3275.40;66.80;;;;;;5030855;28;85289;-80
2021/01/12 23:11:26;;;;;;;35.90;16.47;;;-3275.40;66.70;;;;;;5029305;28;84207;-80
2021/01/12 23:13:52;;;;;;;27.87;16.17;;;-3275.50;66.70;;;;;;5048106;28;83211;-78
2021/01/12 23:16:17;;;;;;;29.93;15.60;;;-3275.50;66.70;;;;;;5041358;28;85970;-80
2021/01/12 23:18:43;;;;;;;30.57;17.47;;;-3275.50;66.70;;;;;;5061049;28;83313;-80
2021/01/12 23:21:13;;;;;;;32.33;16.27;;;-3275.50;66.60;;;;;;5045680;28;86685;-81
2021/01/12 23:23:39;;;;;;;28.07;16.30;;;-3275.50;66.70;;;;;;5029609;28;82426;-80
2021/01/12 23:28:30;;;;;;;30.33;16.77;;;-3275.40;66.80;;;;;;5029163;22;111152;-79
2021/01/12 23:30:56;;;;;;;30.50;17.30;;;-3275.40;66.90;;;;;;5010394;28;84836;-78
2021/01/12 23:33:22;;;;;;;28.37;15.87;;;-3275.30;66.90;;;;;;5009770;28;83217;-78
2021/01/12 23:35:47;;;;;;;30.37;15.80;;;-3275.30;67.10;;;;;;5010068;28;85147;-79
2021/01/12 23:38:13;;;;;;;28.17;16.10;;;-3275.30;67.00;;;;;;5028317;28;83430;-78
2021/01/12 23:40:39;;;;;;;32.33;18.80;;;-3275.30;67.00;;;;;;5010240;28;84207;-79
2021/01/12 23:43:08;;;;;;;28.77;16.13;;;-3275.30;67.00;;;;;;5028742;28;82662;-78
2021/01/12 23:45:36;;;;;;;32.63;16.53;;;-3275.30;67.10;;;;;;5009822;28;84295;-79
2021/01/12 23:48:06;;;;;;;31.73;16.50;;;-3275.30;67.10;;;;;;4992907;28;85389;-78
2021/01/12 23:50:33;;;;;;;34.53;15.30;;;-3275.20;67.00;;;;;;5014033;28;85036;-80
2021/01/12 23:53:03;;;;;;;30.40;16.03;;;-3275.20;66.90;;;;;;5024050;28;84824;-80
2021/01/12 23:55:29;;;;;;;30.00;16.27;;;-3275.20;67.00;;;;;;5043646;28;83624;-81
2021/01/12 23:57:56;;;;;;;27.57;15.50;;;-3275.10;67.00;;;;;;5018627;28;86319;-79
